createdAt,value
2023-04-01T00:00:32.731Z,24.95
2023-04-01T00:01:32.757Z,24.95
2023-04-01T00:02:32.790Z,24.95
2023-04-01T00:03:32.875Z,24.98
2023-04-01T00:04:32.750Z,24.98
2023-04-01T00:05:32.810Z,24.98
2023-04-01T00:06:32.705Z,24.95
2023-04-01T00:07:32.723Z,24.95
2023-04-01T00:08:32.723Z,24.95
2023-04-01T00:09:32.683Z,24.95
2023-04-01T00:10:32.705Z,24.96
2023-04-01T00:11:32.661Z,24.96
2023-04-01T00:12:32.670Z,24.96
2023-04-01T00:13:32.696Z,24.95
2023-04-01T00:14:32.653Z,24.95
2023-04-01T00:15:32.819Z,24.96
2023-04-01T00:16:32.688Z,24.94
2023-04-01T00:17:32.650Z,24.95
2023-04-01T00:18:32.622Z,24.94
2023-04-01T00:19:32.633Z,24.94
2023-04-01T00:20:32.613Z,24.96
2023-04-01T00:21:32.593Z,24.95
2023-04-01T00:22:32.589Z,24.96
2023-04-01T00:23:32.576Z,24.95
2023-04-01T00:24:32.590Z,24.95
2023-04-01T00:25:32.820Z,24.94
2023-04-01T00:26:32.544Z,24.95
2023-04-01T00:27:32.570Z,24.95
2023-04-01T00:28:32.559Z,24.95
2023-04-01T00:29:32.582Z,24.94
2023-04-01T00:30:32.561Z,24.92
2023-04-01T00:31:32.682Z,24.94
2023-04-01T00:32:32.622Z,24.94
2023-04-01T00:33:32.620Z,24.94
2023-04-01T00:34:32.648Z,24.95
2023-04-01T00:35:32.749Z,24.95
2023-04-01T00:36:32.783Z,24.94
2023-04-01T00:37:32.707Z,24.94
2023-04-01T00:38:32.688Z,24.94
2023-04-01T00:39:32.748Z,24.95
2023-04-01T00:40:32.729Z,24.92
2023-04-01T00:41:32.807Z,24.94
2023-04-01T00:42:32.786Z,24.94
2023-04-01T00:43:32.808Z,24.95
2023-04-01T00:44:32.809Z,24.95
2023-04-01T00:45:32.916Z,24.92
2023-04-01T00:46:32.880Z,24.95
2023-04-01T00:47:32.890Z,24.94
2023-04-01T00:48:32.877Z,24.91
2023-04-01T00:49:32.925Z,24.92
2023-04-01T00:50:32.951Z,24.94
2023-04-01T00:51:32.940Z,24.94
2023-04-01T00:52:32.983Z,24.92
2023-04-01T00:53:33.006Z,24.92
2023-04-01T00:54:33.016Z,24.92
2023-04-01T00:55:33.506Z,24.94
2023-04-01T00:56:33.081Z,24.92
2023-04-01T00:57:33.259Z,24.94
2023-04-01T00:58:33.126Z,24.92
2023-04-01T00:59:33.148Z,24.92
2023-04-01T01:00:33.202Z,24.94
2023-04-01T01:01:33.211Z,24.92
2023-04-01T01:02:33.322Z,24.94
2023-04-01T01:03:33.239Z,24.92
2023-04-01T01:04:33.267Z,24.94
2023-04-01T01:05:34.583Z,24.92
2023-04-01T01:06:34.269Z,24.94
2023-04-01T01:07:33.250Z,24.91
2023-04-01T01:08:33.265Z,24.94
2023-04-01T01:09:33.263Z,24.92
2023-04-01T01:10:33.240Z,24.92
2023-04-01T01:11:36.975Z,24.92
2023-04-01T01:12:34.302Z,24.92
2023-04-01T01:13:33.237Z,24.89
2023-04-01T01:14:33.215Z,24.89
2023-04-01T01:15:33.399Z,24.94
2023-04-01T01:16:33.248Z,24.92
2023-04-01T01:17:33.187Z,24.92
2023-04-01T01:18:33.199Z,24.91
2023-04-01T01:19:33.213Z,24.94
2023-04-01T01:20:33.171Z,24.88
2023-04-01T01:21:33.174Z,24.89
2023-04-01T01:22:33.173Z,24.89
2023-04-01T01:23:33.143Z,24.89
2023-04-01T01:24:33.134Z,24.91
2023-04-01T01:25:33.450Z,24.88
2023-04-01T01:26:33.138Z,24.91
2023-04-01T01:27:33.119Z,24.91
2023-04-01T01:28:33.128Z,24.92
2023-04-01T01:29:33.138Z,24.92
2023-04-01T01:30:33.218Z,24.91
2023-04-01T01:31:33.185Z,24.89
2023-04-01T01:32:33.228Z,24.91
2023-04-01T01:33:33.222Z,24.89
2023-04-01T01:34:33.261Z,24.89
2023-04-01T01:35:33.651Z,24.89
2023-04-01T01:36:33.332Z,24.92
2023-04-01T01:37:33.351Z,24.91
2023-04-01T01:38:33.365Z,24.88
2023-04-01T01:39:33.392Z,24.91
2023-04-01T01:40:33.425Z,24.91
2023-04-01T01:41:33.459Z,24.88
2023-04-01T01:42:33.497Z,24.92
2023-04-01T01:43:33.522Z,24.91
2023-04-01T01:44:33.549Z,24.89
2023-04-01T01:45:33.745Z,24.89
2023-04-01T01:46:33.644Z,24.88
2023-04-01T01:47:33.633Z,24.89
2023-04-01T01:48:33.634Z,24.88
2023-04-01T01:49:33.682Z,24.89
2023-04-01T01:50:33.702Z,24.89
2023-04-01T01:51:33.748Z,24.88
2023-04-01T01:52:33.763Z,24.89
2023-04-01T01:53:33.809Z,24.89
2023-04-01T01:54:33.811Z,24.88
2023-04-01T01:55:34.217Z,24.86
2023-04-01T01:56:33.872Z,24.89
2023-04-01T01:57:33.990Z,24.89
2023-04-01T01:58:33.970Z,24.88
2023-04-01T01:59:33.978Z,24.88
2023-04-01T02:00:33.991Z,24.86
2023-04-01T02:01:34.103Z,24.89
2023-04-01T02:02:34.131Z,24.88
2023-04-01T02:03:34.088Z,24.86
2023-04-01T02:04:34.123Z,24.88
2023-04-01T02:05:34.468Z,24.88
2023-04-01T02:06:34.174Z,24.89
2023-04-01T02:07:34.246Z,24.88
2023-04-01T02:08:34.295Z,24.88
2023-04-01T02:09:34.292Z,24.89
2023-04-01T02:10:34.274Z,24.89
2023-04-01T02:11:34.343Z,24.88
2023-04-01T02:12:34.354Z,24.86
2023-04-01T02:13:34.394Z,24.88
2023-04-01T02:14:34.412Z,24.84
2023-04-01T02:15:34.790Z,24.85
2023-04-01T02:16:34.468Z,24.85
2023-04-01T02:17:34.576Z,24.88
2023-04-01T02:18:34.524Z,24.89
2023-04-01T02:19:34.607Z,24.88
2023-04-01T02:20:34.607Z,24.86
2023-04-01T02:21:34.608Z,24.88
2023-04-01T02:22:34.673Z,24.89
2023-04-01T02:23:34.682Z,24.89
2023-04-01T02:24:34.728Z,24.88
2023-04-01T02:25:35.222Z,24.88
2023-04-01T02:26:34.813Z,24.89
2023-04-01T02:27:34.833Z,24.88
2023-04-01T02:28:34.834Z,24.86
2023-04-01T02:29:34.872Z,24.86
2023-04-01T02:30:34.937Z,24.86
2023-04-01T02:31:34.930Z,24.89
2023-04-01T02:32:35.018Z,24.89
2023-04-01T02:33:34.976Z,24.86
2023-04-01T02:34:35.023Z,24.86
2023-04-01T02:35:35.160Z,24.88
2023-04-01T02:36:35.082Z,24.86
2023-04-01T02:37:37.907Z,24.88
2023-04-01T02:38:35.175Z,24.88
2023-04-01T02:39:35.097Z,24.86
2023-04-01T02:40:35.098Z,24.88
2023-04-01T02:41:35.084Z,24.88
2023-04-01T02:42:35.059Z,24.88
2023-04-01T02:43:35.039Z,24.86
2023-04-01T02:44:35.067Z,24.85
2023-04-01T02:45:35.148Z,24.88
2023-04-01T02:46:35.132Z,24.86
2023-04-01T02:47:35.094Z,24.86
2023-04-01T02:48:35.053Z,24.85
2023-04-01T02:49:35.019Z,24.85
2023-04-01T02:50:35.016Z,24.88
2023-04-01T02:51:35.008Z,24.85
2023-04-01T02:52:35.004Z,24.82
2023-04-01T02:53:35.048Z,24.86
2023-04-01T02:54:35.007Z,24.85
2023-04-01T02:55:35.217Z,24.88
2023-04-01T02:56:35.023Z,24.85
2023-04-01T02:57:35.032Z,24.84
2023-04-01T02:58:34.976Z,24.86
2023-04-01T02:59:34.978Z,24.88
2023-04-01T03:00:34.948Z,24.85
2023-04-01T03:01:35.069Z,24.88
2023-04-01T03:02:35.104Z,24.86
2023-04-01T03:03:34.983Z,24.85
2023-04-01T03:04:34.946Z,24.85
2023-04-01T03:05:35.128Z,24.86
2023-04-01T03:06:34.930Z,24.86
2023-04-01T03:07:34.925Z,24.86
2023-04-01T03:08:34.950Z,24.85
2023-04-01T03:09:34.910Z,24.84
2023-04-01T03:10:34.903Z,24.86
2023-04-01T03:11:34.910Z,24.85
2023-04-01T03:12:34.882Z,24.84
2023-04-01T03:13:34.875Z,24.88
2023-04-01T03:14:34.924Z,24.85
2023-04-01T03:15:34.982Z,24.86
2023-04-01T03:16:34.947Z,24.86
2023-04-01T03:17:34.890Z,24.86
2023-04-01T03:18:34.888Z,24.85
2023-04-01T03:19:34.947Z,24.84
2023-04-01T03:20:34.963Z,24.84
2023-04-01T03:21:35.052Z,24.85
2023-04-01T03:22:35.039Z,24.84
2023-04-01T03:23:35.067Z,24.85
2023-04-01T03:24:35.065Z,24.86
2023-04-01T03:25:35.280Z,24.84
2023-04-01T03:26:35.133Z,24.84
2023-04-01T03:27:35.186Z,24.84
2023-04-01T03:28:35.228Z,24.86
2023-04-01T03:29:35.253Z,24.86
2023-04-01T03:30:35.302Z,24.85
2023-04-01T03:31:35.470Z,24.84
2023-04-01T03:32:35.324Z,24.81
2023-04-01T03:33:35.353Z,24.85
2023-04-01T03:34:35.373Z,24.84
2023-04-01T03:35:35.561Z,24.82
2023-04-01T03:36:35.459Z,24.85
2023-04-01T03:37:35.442Z,24.85
2023-04-01T03:38:35.499Z,24.84
2023-04-01T03:39:35.545Z,24.84
2023-04-01T03:40:35.532Z,24.82
2023-04-01T03:41:35.577Z,24.85
2023-04-01T03:42:35.648Z,24.85
2023-04-01T03:43:35.658Z,24.85
2023-04-01T03:44:35.670Z,24.84
2023-04-01T03:45:35.715Z,24.84
2023-04-01T03:46:35.810Z,24.82
2023-04-01T03:47:35.806Z,24.82
2023-04-01T03:48:35.781Z,24.82
2023-04-01T03:49:35.901Z,24.84
2023-04-01T03:50:35.853Z,24.82
2023-04-01T03:51:35.905Z,24.82
2023-04-01T03:52:35.928Z,24.85
2023-04-01T03:53:35.926Z,24.84
2023-04-01T03:54:36.022Z,24.82
2023-04-01T03:55:36.014Z,24.84
2023-04-01T03:56:36.040Z,24.82
2023-04-01T03:57:36.156Z,24.81
2023-04-01T03:58:36.089Z,24.86
2023-04-01T03:59:36.153Z,24.81
2023-04-01T04:00:36.194Z,24.81
2023-04-01T04:01:36.236Z,24.84
2023-04-01T04:02:36.330Z,24.82
2023-04-01T04:03:36.435Z,24.82
2023-04-01T04:04:36.415Z,24.82
2023-04-01T04:05:36.419Z,24.82
2023-04-01T04:06:36.393Z,24.82
2023-04-01T04:07:36.440Z,24.81
2023-04-01T04:08:36.450Z,24.82
2023-04-01T04:09:36.508Z,24.84
2023-04-01T04:10:36.528Z,24.81
2023-04-01T04:11:36.566Z,24.84
2023-04-01T04:12:36.607Z,24.81
2023-04-01T04:13:36.652Z,24.81
2023-04-01T04:14:36.686Z,24.82
2023-04-01T04:15:36.723Z,24.82
2023-04-01T04:16:36.747Z,24.79
2023-04-01T04:17:36.781Z,24.81
2023-04-01T04:18:36.787Z,24.84
2023-04-01T04:19:36.800Z,24.81
2023-04-01T04:20:36.861Z,24.84
2023-04-01T04:21:36.888Z,24.81
2023-04-01T04:22:36.900Z,24.81
2023-04-01T04:23:36.947Z,24.82
2023-04-01T04:24:37.012Z,24.84
2023-04-01T04:25:37.030Z,24.81
2023-04-01T04:26:37.062Z,24.82
2023-04-01T04:27:37.106Z,24.84
2023-04-01T04:28:37.127Z,24.82
2023-04-01T04:29:37.142Z,24.81
2023-04-01T04:30:37.157Z,24.82
2023-04-01T04:31:37.296Z,24.85
2023-04-01T04:32:37.310Z,24.81
2023-04-01T04:33:37.318Z,24.82
2023-04-01T04:34:37.333Z,24.82
2023-04-01T04:35:37.397Z,24.79
2023-04-01T04:36:37.391Z,24.79
2023-04-01T04:37:37.432Z,24.82
2023-04-01T04:38:37.483Z,24.79
2023-04-01T04:39:37.500Z,24.81
2023-04-01T04:40:37.525Z,24.79
2023-04-01T04:41:37.685Z,24.84
2023-04-01T04:42:37.601Z,24.79
2023-04-01T04:43:37.636Z,24.81
2023-04-01T04:44:37.658Z,24.82
2023-04-01T04:45:37.720Z,24.79
2023-04-01T04:46:37.850Z,24.81
2023-04-01T04:47:37.759Z,24.81
2023-04-01T04:48:37.801Z,24.82
2023-04-01T04:49:37.832Z,24.81
2023-04-01T04:50:37.877Z,24.79
2023-04-01T04:51:37.909Z,24.81
2023-04-01T04:52:37.939Z,24.82
2023-04-01T04:53:37.964Z,24.81
2023-04-01T04:54:38.029Z,24.81
2023-04-01T04:55:38.032Z,24.79
2023-04-01T04:56:38.070Z,24.79
2023-04-01T04:57:38.133Z,24.81
2023-04-01T04:58:38.136Z,24.81
2023-04-01T04:59:38.166Z,24.79
2023-04-01T05:00:38.218Z,24.78
2023-04-01T05:01:38.314Z,24.78
2023-04-01T05:02:38.370Z,24.79
2023-04-01T05:03:38.356Z,24.79
2023-04-01T05:04:38.379Z,24.81
2023-04-01T05:05:38.416Z,24.78
2023-04-01T05:06:38.421Z,24.79
2023-04-01T05:07:38.439Z,24.78
2023-04-01T05:08:38.508Z,24.77
2023-04-01T05:09:38.540Z,24.79
2023-04-01T05:10:38.577Z,24.78
2023-04-01T05:11:38.590Z,24.81
2023-04-01T05:12:38.655Z,24.81
2023-04-01T05:13:38.680Z,24.79
2023-04-01T05:14:38.730Z,24.78
2023-04-01T05:15:38.764Z,24.78
2023-04-01T05:16:38.832Z,24.79
2023-04-01T05:17:38.806Z,24.81
2023-04-01T05:18:38.844Z,24.82
2023-04-01T05:19:38.906Z,24.77
2023-04-01T05:20:38.959Z,24.79
2023-04-01T05:21:38.969Z,24.78
2023-04-01T05:22:38.977Z,24.78
2023-04-01T05:23:39.013Z,24.78
2023-04-01T05:24:39.069Z,24.78
2023-04-01T05:25:39.111Z,24.79
2023-04-01T05:26:39.127Z,24.78
2023-04-01T05:27:39.176Z,24.81
2023-04-01T05:28:39.222Z,24.79
2023-04-01T05:29:39.253Z,24.78
2023-04-01T05:30:39.323Z,24.79
2023-04-01T05:31:39.308Z,24.81
2023-04-01T05:32:39.422Z,24.79
2023-04-01T05:33:39.373Z,24.81
2023-04-01T05:34:39.417Z,24.79
2023-04-01T05:35:39.472Z,24.79
2023-04-01T05:36:39.513Z,24.81
2023-04-01T05:37:39.526Z,24.81
2023-04-01T05:38:39.567Z,24.79
2023-04-01T05:39:39.602Z,24.81
2023-04-01T05:40:39.642Z,24.79
2023-04-01T05:41:39.666Z,24.79
2023-04-01T05:42:39.696Z,24.78
2023-04-01T05:43:39.746Z,24.81
2023-04-01T05:44:39.784Z,24.79
2023-04-01T05:45:39.820Z,24.84
2023-04-01T05:46:39.881Z,24.81
2023-04-01T05:47:39.952Z,24.82
2023-04-01T05:48:39.933Z,24.79
2023-04-01T05:49:39.954Z,24.84
2023-04-01T05:50:39.970Z,24.81
2023-04-01T05:51:40.031Z,24.82
2023-04-01T05:52:40.052Z,24.82
2023-04-01T05:53:40.080Z,24.84
2023-04-01T05:54:40.131Z,24.82
2023-04-01T05:55:40.134Z,24.84
2023-04-01T05:56:40.192Z,24.82
2023-04-01T05:57:40.282Z,24.84
2023-04-01T05:58:40.234Z,24.82
2023-04-01T05:59:40.263Z,24.81
2023-04-01T06:00:40.324Z,24.85
2023-04-01T06:01:40.320Z,24.85
2023-04-01T06:02:40.448Z,24.86
2023-04-01T06:03:40.484Z,24.88
2023-04-01T06:04:40.506Z,24.85
2023-04-01T06:05:40.447Z,24.84
2023-04-01T06:06:40.477Z,24.85
2023-04-01T06:07:40.502Z,24.85
2023-04-01T06:08:40.517Z,24.86
2023-04-01T06:09:40.586Z,24.85
2023-04-01T06:10:40.630Z,24.86
2023-04-01T06:11:41.173Z,24.88
2023-04-01T06:12:40.668Z,24.88
2023-04-01T06:13:40.693Z,24.88
2023-04-01T06:14:40.702Z,24.91
2023-04-01T06:15:40.752Z,24.88
2023-04-01T06:16:40.876Z,24.88
2023-04-01T06:17:40.856Z,24.88
2023-04-01T06:18:40.818Z,24.92
2023-04-01T06:19:40.884Z,24.92
2023-04-01T06:20:40.909Z,24.95
2023-04-01T06:21:40.910Z,24.94
2023-04-01T06:22:40.949Z,24.95
2023-04-01T06:23:40.995Z,24.95
2023-04-01T06:24:41.005Z,24.94
2023-04-01T06:25:41.003Z,24.95
2023-04-01T06:26:41.033Z,24.96
2023-04-01T06:27:41.094Z,24.96
2023-04-01T06:28:41.085Z,24.96
2023-04-01T06:29:41.097Z,24.96
2023-04-01T06:30:41.134Z,24.96
2023-04-01T06:31:41.143Z,24.95
2023-04-01T06:32:41.186Z,24.98
2023-04-01T06:33:41.174Z,24.96
2023-04-01T06:34:41.207Z,24.95
2023-04-01T06:35:41.284Z,24.96
2023-04-01T06:36:41.270Z,24.99
2023-04-01T06:37:41.253Z,24.96
2023-04-01T06:38:41.311Z,24.99
2023-04-01T06:39:41.314Z,24.98
2023-04-01T06:40:41.331Z,24.99
2023-04-01T06:41:41.353Z,24.98
2023-04-01T06:42:41.376Z,24.98
2023-04-01T06:43:41.373Z,24.98
2023-04-01T06:44:41.409Z,24.99
2023-04-01T06:45:41.441Z,24.99
2023-04-01T06:46:41.697Z,25.02
2023-04-01T06:47:42.517Z,25.03
2023-04-01T06:48:41.495Z,25.02
2023-04-01T06:49:41.496Z,25.01
2023-04-01T06:50:41.497Z,25.02
2023-04-01T06:51:41.558Z,24.99
2023-04-01T06:52:41.554Z,25.03
2023-04-01T06:53:41.559Z,25.05
2023-04-01T06:54:41.619Z,25.06
2023-04-01T06:55:41.629Z,25.08
2023-04-01T06:56:41.657Z,25.08
2023-04-01T06:57:41.671Z,25.09
2023-04-01T06:58:42.182Z,25.11
2023-04-01T06:59:41.722Z,25.11
2023-04-01T07:00:41.736Z,25.12
2023-04-01T07:01:41.790Z,25.15
2023-04-01T07:02:41.743Z,25.15
2023-04-01T07:03:41.739Z,25.19
2023-04-01T07:04:41.845Z,25.19
2023-04-01T07:05:41.767Z,25.19
2023-04-01T07:06:41.758Z,25.18
2023-04-01T07:07:41.784Z,25.19
2023-04-01T07:08:41.805Z,25.22
2023-04-01T07:09:41.773Z,25.22
2023-04-01T07:10:41.813Z,25.21
2023-04-01T07:11:41.774Z,25.23
2023-04-01T07:12:41.795Z,25.23
2023-04-01T07:13:41.822Z,25.22
2023-04-01T07:14:41.814Z,25.23
2023-04-01T07:15:41.834Z,25.23
2023-04-01T07:16:41.869Z,25.26
2023-04-01T07:17:41.839Z,25.26
2023-04-01T07:18:41.846Z,25.25
2023-04-01T07:19:41.854Z,25.29
2023-04-01T07:20:41.922Z,25.29
2023-04-01T07:21:41.839Z,25.29
2023-04-01T07:22:41.838Z,25.29
2023-04-01T07:23:41.858Z,25.28
2023-04-01T07:24:41.871Z,25.29
2023-04-01T07:25:41.866Z,25.32
2023-04-01T07:26:41.858Z,25.35
2023-04-01T07:27:41.812Z,25.36
2023-04-01T07:28:41.848Z,25.39
2023-04-01T07:29:41.853Z,25.37
2023-04-01T07:30:41.889Z,25.42
2023-04-01T07:31:41.852Z,25.42
2023-04-01T07:32:41.897Z,25.42
2023-04-01T07:33:41.873Z,25.40
2023-04-01T07:34:41.865Z,25.40
2023-04-01T07:35:41.913Z,25.39
2023-04-01T07:36:41.868Z,25.37
2023-04-01T07:37:41.871Z,25.40
2023-04-01T07:38:41.895Z,25.39
2023-04-01T07:39:41.865Z,25.42
2023-04-01T07:40:41.858Z,25.42
2023-04-01T07:41:41.864Z,25.42
2023-04-01T07:42:41.918Z,25.43
2023-04-01T07:43:41.934Z,25.42
2023-04-01T07:44:42.001Z,25.43
2023-04-01T07:45:41.995Z,25.43
2023-04-01T07:46:42.034Z,25.43
2023-04-01T07:47:42.012Z,25.45
2023-04-01T07:48:41.996Z,25.45
2023-04-01T07:49:42.021Z,25.46
2023-04-01T07:50:42.034Z,25.46
2023-04-01T07:51:42.027Z,25.47
2023-04-01T07:52:42.054Z,25.46
2023-04-01T07:53:42.137Z,25.47
2023-04-01T07:54:42.082Z,25.47
2023-04-01T07:55:42.085Z,25.43
2023-04-01T07:56:42.081Z,25.43
2023-04-01T07:57:42.095Z,25.43
2023-04-01T07:58:42.119Z,25.46
2023-04-01T07:59:42.132Z,25.47
2023-04-01T08:00:42.139Z,25.43
2023-04-01T08:01:42.139Z,25.45
2023-04-01T08:02:42.238Z,25.49
2023-04-01T08:03:42.395Z,25.49
2023-04-01T08:04:42.265Z,25.49
2023-04-01T08:05:44.480Z,25.52
2023-04-01T08:06:42.212Z,25.53
2023-04-01T08:07:42.255Z,25.56
2023-04-01T08:08:42.236Z,25.59
2023-04-01T08:09:42.197Z,25.59
2023-04-01T08:10:42.217Z,25.63
2023-04-01T08:11:43.704Z,25.67
2023-04-01T08:12:42.235Z,25.69
2023-04-01T08:13:42.213Z,25.73
2023-04-01T08:14:42.182Z,25.73
2023-04-01T08:15:42.177Z,25.77
2023-04-01T08:16:42.261Z,25.84
2023-04-01T08:17:42.162Z,25.86
2023-04-01T08:18:42.166Z,25.88
2023-04-01T08:19:42.145Z,25.93
2023-04-01T08:20:42.139Z,25.97
2023-04-01T08:21:42.152Z,26.01
2023-04-01T08:22:42.114Z,26.04
2023-04-01T08:23:42.107Z,26.08
2023-04-01T08:24:47.549Z,26.14
2023-04-01T08:25:43.134Z,26.14
2023-04-01T08:26:42.093Z,26.17
2023-04-01T08:27:42.074Z,26.20
2023-04-01T08:28:42.093Z,26.23
2023-04-01T08:29:42.094Z,26.26
2023-04-01T08:30:42.084Z,26.30
2023-04-01T08:31:42.101Z,26.32
2023-04-01T08:32:42.096Z,26.32
2023-04-01T08:33:42.054Z,26.38
2023-04-01T08:34:42.057Z,26.39
2023-04-01T08:35:42.236Z,26.38
2023-04-01T08:36:42.037Z,26.41
2023-04-01T08:37:42.043Z,26.45
2023-04-01T08:38:42.227Z,26.47
2023-04-01T08:39:42.038Z,26.49
2023-04-01T08:40:42.012Z,26.51
2023-04-01T08:41:41.997Z,26.52
2023-04-01T08:42:42.001Z,26.52
2023-04-01T08:43:41.979Z,26.54
2023-04-01T08:44:41.989Z,26.55
2023-04-01T08:45:42.001Z,26.55
2023-04-01T08:46:42.007Z,26.58
2023-04-01T08:47:42.021Z,26.59
2023-04-01T08:48:41.948Z,26.61
2023-04-01T08:49:41.950Z,26.65
2023-04-01T08:50:41.962Z,26.62
2023-04-01T08:51:41.986Z,26.62
2023-04-01T08:52:41.946Z,26.69
2023-04-01T08:53:41.969Z,26.69
2023-04-01T08:54:41.964Z,26.71
2023-04-01T08:55:41.963Z,26.71
2023-04-01T08:56:41.978Z,26.77
2023-04-01T08:57:41.966Z,26.74
2023-04-01T08:58:41.926Z,26.77
2023-04-01T08:59:41.969Z,26.78
2023-04-01T09:00:41.973Z,26.79
2023-04-01T09:01:41.962Z,26.82
2023-04-01T09:02:42.053Z,26.85
2023-04-01T09:03:42.026Z,26.83
2023-04-01T09:04:42.053Z,26.85
2023-04-01T09:05:42.109Z,26.83
2023-04-01T09:06:42.148Z,26.88
2023-04-01T09:07:42.211Z,26.90
2023-04-01T09:08:42.222Z,26.90
2023-04-01T09:09:42.327Z,26.92
2023-04-01T09:10:42.413Z,26.93
2023-04-01T09:11:42.419Z,26.92
2023-04-01T09:12:42.426Z,26.92
2023-04-01T09:13:42.507Z,26.93
2023-04-01T09:14:42.593Z,26.96
2023-04-01T09:15:42.617Z,26.98
2023-04-01T09:16:42.709Z,26.96
2023-04-01T09:17:42.763Z,26.98
2023-04-01T09:18:42.795Z,27.00
2023-04-01T09:19:42.875Z,27.00
2023-04-01T09:20:42.960Z,27.02
2023-04-01T09:21:43.006Z,27.02
2023-04-01T09:22:43.085Z,27.03
2023-04-01T09:23:43.132Z,27.05
2023-04-01T09:24:43.249Z,27.07
2023-04-01T09:25:43.251Z,27.07
2023-04-01T09:26:43.308Z,27.07
2023-04-01T09:27:43.352Z,27.09
2023-04-01T09:28:43.399Z,27.09
2023-04-01T09:29:43.463Z,27.10
2023-04-01T09:30:43.499Z,27.09
2023-04-01T09:31:43.661Z,27.12
2023-04-01T09:32:43.718Z,27.12
2023-04-01T09:33:43.665Z,27.12
2023-04-01T09:34:43.734Z,27.10
2023-04-01T09:35:43.771Z,27.14
2023-04-01T09:36:43.823Z,27.13
2023-04-01T09:37:43.877Z,27.16
2023-04-01T09:38:43.935Z,27.14
2023-04-01T09:39:43.951Z,27.13
2023-04-01T09:40:43.993Z,27.13
2023-04-01T09:41:44.027Z,27.12
2023-04-01T09:42:44.087Z,27.14
2023-04-01T09:43:44.163Z,27.13
2023-04-01T09:44:44.190Z,27.10
2023-04-01T09:45:44.251Z,27.12
2023-04-01T09:46:44.293Z,27.14
2023-04-01T09:47:44.387Z,27.14
2023-04-01T09:48:44.398Z,27.14
2023-04-01T09:49:44.435Z,27.16
2023-04-01T09:50:44.499Z,27.16
2023-04-01T09:51:44.538Z,27.12
2023-04-01T09:52:46.054Z,27.14
2023-04-01T09:53:44.611Z,27.12
2023-04-01T09:54:44.674Z,27.12
2023-04-01T09:55:44.692Z,27.14
2023-04-01T09:56:44.863Z,27.12
2023-04-01T09:57:44.817Z,27.06
2023-04-01T09:58:44.872Z,27.07
2023-04-01T09:59:44.951Z,27.09
2023-04-01T10:00:44.996Z,27.10
2023-04-01T10:01:45.107Z,27.07
2023-04-01T10:02:45.171Z,27.05
2023-04-01T10:03:45.146Z,27.05
2023-04-01T10:04:45.212Z,27.06
2023-04-01T10:05:45.421Z,27.00
2023-04-01T10:06:45.324Z,26.99
2023-04-01T10:07:45.403Z,26.99
2023-04-01T10:08:45.441Z,26.98
2023-04-01T10:09:45.507Z,26.98
2023-04-01T10:10:45.596Z,26.96
2023-04-01T10:11:45.627Z,26.95
2023-04-01T10:12:45.757Z,26.93
2023-04-01T10:13:45.747Z,26.90
2023-04-01T10:14:45.789Z,26.93
2023-04-01T10:15:45.856Z,26.92
2023-04-01T10:16:45.929Z,26.89
2023-04-01T10:17:46.072Z,26.89
2023-04-01T10:18:46.008Z,26.88
2023-04-01T10:19:46.039Z,26.85
2023-04-01T10:20:46.094Z,26.85
2023-04-01T10:21:46.270Z,26.85
2023-04-01T10:22:46.193Z,26.86
2023-04-01T10:23:46.273Z,26.82
2023-04-01T10:24:46.282Z,26.81
2023-04-01T10:25:46.320Z,26.83
2023-04-01T10:26:46.386Z,26.85
2023-04-01T10:27:46.408Z,26.82
2023-04-01T10:28:46.436Z,26.85
2023-04-01T10:29:46.529Z,26.79
2023-04-01T10:30:46.524Z,26.79
2023-04-01T10:31:46.685Z,26.79
2023-04-01T10:32:46.634Z,26.79
2023-04-01T10:33:46.687Z,26.79
2023-04-01T10:34:46.681Z,26.78
2023-04-01T10:35:46.726Z,26.79
2023-04-01T10:36:46.728Z,26.82
2023-04-01T10:37:46.762Z,26.78
2023-04-01T10:38:46.800Z,26.81
2023-04-01T10:39:46.786Z,26.83
2023-04-01T10:40:46.788Z,26.79
2023-04-01T10:41:46.797Z,26.82
2023-04-01T10:42:46.837Z,26.79
2023-04-01T10:43:46.856Z,26.82
2023-04-01T10:44:46.854Z,26.79
2023-04-01T10:45:46.989Z,26.79
2023-04-01T10:46:46.931Z,26.81
2023-04-01T10:47:46.995Z,26.82
2023-04-01T10:48:47.033Z,26.81
2023-04-01T10:49:47.068Z,26.78
2023-04-01T10:50:47.113Z,26.79
2023-04-01T10:51:47.170Z,26.81
2023-04-01T10:52:47.213Z,26.79
2023-04-01T10:53:47.208Z,26.79
2023-04-01T10:54:47.212Z,26.81
2023-04-01T10:55:47.242Z,26.79
2023-04-01T10:56:47.277Z,26.79
2023-04-01T10:57:47.308Z,26.81
2023-04-01T10:58:47.321Z,26.78
2023-04-01T10:59:47.339Z,26.79
2023-04-01T11:00:47.384Z,26.79
2023-04-01T11:01:50.728Z,26.81
2023-04-01T11:02:48.501Z,26.81
2023-04-01T11:03:47.702Z,26.83
2023-04-01T11:04:47.404Z,26.82
2023-04-01T11:05:47.382Z,26.83
2023-04-01T11:06:47.403Z,26.85
2023-04-01T11:07:55.893Z,26.86
2023-04-01T11:08:48.379Z,26.89
2023-04-01T11:09:47.471Z,26.86
2023-04-01T11:10:47.371Z,26.88
2023-04-01T11:11:48.298Z,26.89
2023-04-01T11:12:47.355Z,26.88
2023-04-01T11:13:47.347Z,26.90
2023-04-01T11:14:47.373Z,26.93
2023-04-01T11:15:47.400Z,26.95
2023-04-01T11:16:47.330Z,26.95
2023-04-01T11:17:47.390Z,26.95
2023-04-01T11:18:47.467Z,26.96
2023-04-01T11:19:47.556Z,26.99
2023-04-01T11:20:47.584Z,26.99
2023-04-01T11:21:47.639Z,27.00
2023-04-01T11:22:47.725Z,27.00
2023-04-01T11:24:01.762Z,27.02
2023-04-01T11:24:48.754Z,27.03
2023-04-01T11:25:47.722Z,26.98
2023-04-01T11:26:47.765Z,27.03
2023-04-01T11:27:47.745Z,27.06
2023-04-01T11:28:47.741Z,27.02
2023-04-01T11:29:58.802Z,27.02
2023-04-01T11:30:48.726Z,27.02
2023-04-01T11:31:47.783Z,27.00
2023-04-01T11:32:47.760Z,26.99
2023-04-01T11:33:47.693Z,26.99
2023-04-01T11:34:47.692Z,26.99
2023-04-01T11:35:47.693Z,26.96
2023-04-01T11:36:47.698Z,26.98
2023-04-01T11:37:47.685Z,27.00
2023-04-01T11:38:47.692Z,27.00
2023-04-01T11:39:47.667Z,26.95
2023-04-01T11:40:47.715Z,26.95
2023-04-01T11:41:47.752Z,26.95
2023-04-01T11:42:47.844Z,26.96
2023-04-01T11:43:47.885Z,26.98
2023-04-01T11:44:47.948Z,26.98
2023-04-01T11:45:47.991Z,26.99
2023-04-01T11:46:48.108Z,26.99
2023-04-01T11:47:48.133Z,26.99
2023-04-01T11:48:48.173Z,27.00
2023-04-01T11:49:48.232Z,27.02
2023-04-01T11:50:48.293Z,27.00
2023-04-01T11:51:48.331Z,27.00
2023-04-01T11:52:48.407Z,26.98
2023-04-01T11:53:48.467Z,26.98
2023-04-01T11:54:48.517Z,26.96
2023-04-01T11:55:50.437Z,26.96
2023-04-01T11:56:48.706Z,26.95
2023-04-01T11:57:48.701Z,26.93
2023-04-01T11:58:48.746Z,26.95
2023-04-01T11:59:48.811Z,26.93
2023-04-01T12:00:48.886Z,26.92
2023-04-01T12:01:48.927Z,26.90
2023-04-01T12:02:49.085Z,26.93
2023-04-01T12:03:49.253Z,26.89
2023-04-01T12:04:49.203Z,26.90
2023-04-01T12:05:49.207Z,26.89
2023-04-01T12:06:49.274Z,26.90
2023-04-01T12:07:49.310Z,26.88
2023-04-01T12:08:49.373Z,26.88
2023-04-01T12:09:49.465Z,26.88
2023-04-01T12:10:49.531Z,26.88
2023-04-01T12:11:49.585Z,26.86
2023-04-01T12:13:00.096Z,26.86
2023-04-01T12:13:50.643Z,26.83
2023-04-01T12:14:49.643Z,26.83
2023-04-01T12:15:49.634Z,26.83
2023-04-01T12:16:49.697Z,26.83
2023-04-01T12:17:49.660Z,26.82
2023-04-01T12:18:49.632Z,26.82
2023-04-01T12:19:49.609Z,26.82
2023-04-01T12:20:49.585Z,26.82
2023-04-01T12:21:49.609Z,26.81
2023-04-01T12:22:49.583Z,26.82
2023-04-01T12:23:49.566Z,26.79
2023-04-01T12:24:49.660Z,26.79
2023-04-01T12:25:49.702Z,26.78
2023-04-01T12:26:49.746Z,26.77
2023-04-01T12:27:51.461Z,26.78
2023-04-01T12:28:49.784Z,26.77
2023-04-01T12:29:49.818Z,26.75
2023-04-01T12:30:49.841Z,26.74
2023-04-01T12:31:49.897Z,26.74
2023-04-01T12:32:49.941Z,26.75
2023-04-01T12:33:49.849Z,26.72
2023-04-01T12:34:49.897Z,26.74
2023-04-01T12:35:49.930Z,26.72
2023-04-01T12:36:51.300Z,26.69
2023-04-01T12:37:49.932Z,26.72
2023-04-01T12:38:49.976Z,26.69
2023-04-01T12:39:49.973Z,26.68
2023-04-01T12:40:49.982Z,26.68
2023-04-01T12:41:49.981Z,26.68
2023-04-01T12:42:49.992Z,26.68
2023-04-01T12:43:49.995Z,26.65
2023-04-01T12:44:49.954Z,26.63
2023-04-01T12:45:49.974Z,26.62
2023-04-01T12:46:49.963Z,26.62
2023-04-01T12:47:50.074Z,26.62
2023-04-01T12:48:49.949Z,26.61
2023-04-01T12:49:49.933Z,26.61
2023-04-01T12:50:49.960Z,26.58
2023-04-01T12:51:49.968Z,26.56
2023-04-01T12:52:49.978Z,26.56